createdAt,value
2019-03-12T00:01:51.096Z,5.67
2019-03-12T00:04:21.571Z,5.43
2019-03-12T00:06:52.069Z,8.47
2019-03-12T00:09:22.672Z,5.47
2019-03-12T00:11:53.128Z,6.10
2019-03-12T00:14:23.583Z,5.70
2019-03-12T00:16:54.066Z,5.23
2019-03-12T00:19:24.516Z,5.20
2019-03-12T00:21:55.005Z,6.60
2019-03-12T00:24:25.554Z,6.07
2019-03-12T00:26:56.055Z,5.73
2019-03-12T00:29:26.514Z,5.70
2019-03-12T00:31:57.003Z,8.60
2019-03-12T00:34:27.447Z,6.37
2019-03-12T00:36:58.007Z,5.90
2019-03-12T00:39:28.464Z,5.67
2019-03-12T00:41:58.952Z,6.27
2019-03-12T00:44:29.428Z,5.97
2019-03-12T00:46:59.984Z,5.40
2019-03-12T00:49:30.465Z,7.60
2019-03-12T00:52:00.915Z,6.33
2019-03-12T00:54:31.403Z,6.70
2019-03-12T00:57:01.868Z,6.70
2019-03-12T00:59:32.374Z,5.87
2019-03-12T01:02:02.825Z,5.57
2019-03-12T01:04:33.329Z,5.40
2019-03-12T01:07:03.784Z,6.27
2019-03-12T01:09:34.271Z,6.43
2019-03-12T01:12:04.823Z,6.83
2019-03-12T01:14:35.307Z,6.80
2019-03-12T01:17:05.860Z,7.53
2019-03-12T01:19:36.348Z,13.13
2019-03-12T01:22:06.910Z,9.37
2019-03-12T01:24:37.398Z,8.63
2019-03-12T01:27:07.843Z,6.70
2019-03-12T01:29:38.333Z,11.13
2019-03-12T01:32:08.790Z,6.20
2019-03-12T01:34:39.278Z,7.30
2019-03-12T01:37:09.730Z,6.23
2019-03-12T01:39:40.171Z,7.03
2019-03-12T01:42:10.672Z,6.77
2019-03-12T01:44:41.158Z,5.40
2019-03-12T01:47:11.616Z,10.47
2019-03-12T01:49:42.100Z,6.07
2019-03-12T01:52:12.554Z,8.20
2019-03-12T01:54:43.012Z,4.37
2019-03-12T01:57:13.504Z,4.50
2019-03-12T01:59:43.953Z,4.57
2019-03-12T02:02:14.548Z,9.03
2019-03-12T02:04:45.007Z,6.07
2019-03-12T02:07:15.500Z,5.20
2019-03-12T02:09:46.004Z,5.70
2019-03-12T02:12:16.458Z,4.37
2019-03-12T02:14:46.945Z,4.83
2019-03-12T02:17:17.386Z,8.17
2019-03-12T02:19:47.867Z,4.40
2019-03-12T02:22:18.353Z,4.07
2019-03-12T02:24:53.063Z,7.13
2019-03-12T02:27:21.128Z,7.23
2019-03-12T02:29:51.680Z,3.50
2019-03-12T02:32:22.137Z,8.80
2019-03-12T02:34:52.627Z,5.43
2019-03-12T02:37:23.103Z,4.47
2019-03-12T02:39:53.552Z,4.77
2019-03-12T02:42:24.037Z,4.10
2019-03-12T02:44:54.483Z,4.03
2019-03-12T02:47:24.978Z,3.77
2019-03-12T02:49:55.456Z,3.47
2019-03-12T02:52:25.908Z,4.17
2019-03-12T02:54:56.400Z,3.67
2019-03-12T02:57:26.893Z,9.40
2019-03-12T02:59:57.351Z,4.63
2019-03-12T03:02:27.809Z,6.03
2019-03-12T03:04:58.407Z,6.03
2019-03-12T03:07:46.192Z,4.57
2019-03-12T03:10:16.649Z,5.93
2019-03-12T03:12:47.249Z,3.20
2019-03-12T03:15:19.690Z,3.43
2019-03-12T03:17:50.283Z,5.63
2019-03-12T03:20:20.776Z,2.90
2019-03-12T03:22:51.342Z,2.83
2019-03-12T03:25:22.035Z,4.20
2019-03-12T03:27:52.517Z,6.03
2019-03-12T03:30:24.256Z,4.13
2019-03-12T03:32:54.844Z,5.10
2019-03-12T03:35:25.293Z,2.13
2019-03-12T03:37:55.790Z,5.93
2019-03-12T03:40:26.247Z,14.30
2019-03-12T03:42:56.753Z,12.43
2019-03-12T03:45:27.309Z,4.20
2019-03-12T03:47:57.905Z,5.83
2019-03-12T03:50:28.392Z,5.80
2019-03-12T03:52:58.842Z,6.20
2019-03-12T03:55:29.295Z,4.60
2019-03-12T03:57:59.997Z,5.93
2019-03-12T04:00:30.525Z,6.90
2019-03-12T04:03:00.985Z,3.20
2019-03-12T04:05:31.424Z,2.93
2019-03-12T04:08:01.906Z,1.23
2019-03-12T04:10:32.436Z,4.67
2019-03-12T04:13:02.937Z,1.50
2019-03-12T04:15:33.404Z,5.73
2019-03-12T04:18:03.889Z,3.47
2019-03-12T04:20:34.455Z,5.23
2019-03-12T04:23:04.919Z,6.27
2019-03-12T04:25:35.383Z,1.90
2019-03-12T04:28:05.854Z,1.13
2019-03-12T04:30:36.304Z,6.33
2019-03-12T04:33:08.234Z,2.07
2019-03-12T04:35:38.672Z,1.50
2019-03-12T04:38:09.168Z,2.03
2019-03-12T04:40:39.610Z,6.40
2019-03-12T04:43:10.105Z,1.23
2019-03-12T04:45:40.539Z,2.77
2019-03-12T04:48:11.031Z,1.00
2019-03-12T04:50:41.521Z,2.43
2019-03-12T04:53:11.995Z,7.47
2019-03-12T04:55:42.471Z,1.77
2019-03-12T04:58:12.961Z,5.80
2019-03-12T05:00:43.467Z,1.43
2019-03-12T05:03:13.902Z,3.33
2019-03-12T05:05:44.351Z,5.47
2019-03-12T05:08:14.879Z,10.13
2019-03-12T05:10:45.409Z,2.90
2019-03-12T05:13:15.908Z,8.13
2019-03-12T05:15:46.361Z,0.80
2019-03-12T05:18:16.936Z,5.43
2019-03-12T05:20:47.523Z,4.47
2019-03-12T05:23:17.974Z,1.90
2019-03-12T05:25:48.429Z,2.17
2019-03-12T05:28:18.919Z,8.80
2019-03-12T05:30:49.491Z,5.27
2019-03-12T05:33:20.010Z,5.20
2019-03-12T05:35:50.442Z,3.97
2019-03-12T05:38:20.885Z,4.30
2019-03-12T05:40:51.366Z,5.90
2019-03-12T05:43:21.932Z,8.43
2019-03-12T05:45:52.392Z,3.50
2019-03-12T05:48:22.884Z,6.50
2019-03-12T05:50:53.379Z,3.43
2019-03-12T05:53:28.970Z,8.60
2019-03-12T05:55:59.463Z,10.60
2019-03-12T05:58:29.902Z,5.80
2019-03-12T06:01:00.395Z,20.20
2019-03-12T06:03:30.893Z,10.50
2019-03-12T06:06:01.347Z,6.90
2019-03-12T06:08:31.835Z,8.80
2019-03-12T06:11:02.348Z,12.60
2019-03-12T06:13:32.809Z,5.27
2019-03-12T06:16:03.378Z,10.90
2019-03-12T06:18:33.828Z,9.60
2019-03-12T06:21:04.294Z,19.43
2019-03-12T06:23:34.894Z,4.73
2019-03-12T06:26:05.459Z,11.23
2019-03-12T06:28:36.168Z,10.70
2019-03-12T06:31:23.578Z,6.90
2019-03-12T06:34:15.299Z,6.53
2019-03-12T06:37:16.906Z,8.07
2019-03-12T06:40:03.789Z,10.60
2019-03-12T06:42:59.269Z,16.00
2019-03-12T06:45:38.538Z,6.37
2019-03-12T06:48:27.871Z,6.17
2019-03-12T06:51:14.565Z,26.37
2019-03-12T06:54:06.428Z,8.63
2019-03-12T06:57:04.980Z,25.07
2019-03-12T07:00:01.482Z,12.63
2019-03-12T07:02:48.920Z,7.63
2019-03-12T07:05:31.470Z,7.40
2019-03-12T07:08:14.125Z,4.47
2019-03-12T07:11:08.906Z,11.70
2019-03-12T07:14:04.082Z,4.93
2019-03-12T07:16:56.475Z,5.50
2019-03-12T07:20:03.867Z,7.40
2019-03-12T07:22:56.101Z,2.27
2019-03-12T07:25:51.427Z,7.93
2019-03-12T07:28:35.770Z,1.40
2019-03-12T07:31:31.082Z,3.47
2019-03-12T07:34:37.042Z,6.80
2019-03-12T07:37:44.442Z,3.17
2019-03-12T07:40:32.430Z,4.83
2019-03-12T07:43:11.886Z,1.90
2019-03-12T07:45:48.420Z,2.47
2019-03-12T07:48:32.538Z,5.70
2019-03-12T07:51:30.686Z,2.67
2019-03-12T07:54:17.522Z,5.57
2019-03-12T07:57:06.766Z,6.93
2019-03-12T07:59:58.997Z,4.83
2019-03-12T08:02:40.905Z,4.47
2019-03-12T08:05:48.446Z,5.47
2019-03-12T08:08:35.838Z,2.63
2019-03-12T08:11:37.041Z,10.90
2019-03-12T08:14:15.534Z,3.90
2019-03-12T08:17:03.461Z,5.27
2019-03-12T08:19:51.565Z,3.40
2019-03-12T08:22:41.015Z,5.60
2019-03-12T08:25:26.176Z,1.47
2019-03-12T08:28:21.362Z,6.87
2019-03-12T08:31:06.403Z,6.43
2019-03-12T08:33:58.964Z,1.20
2019-03-12T08:37:00.515Z,2.20
2019-03-12T08:39:48.290Z,2.63
2019-03-12T08:42:54.410Z,4.47
2019-03-12T08:45:54.125Z,2.57
2019-03-12T08:48:49.604Z,8.90
2019-03-12T08:51:41.201Z,2.93
2019-03-12T08:54:30.524Z,2.53
2019-03-12T08:57:31.751Z,5.77
2019-03-12T09:00:23.898Z,16.03
2019-03-12T09:03:12.237Z,6.93
2019-03-12T09:05:50.992Z,3.07
2019-03-12T09:08:31.752Z,6.53
2019-03-12T09:11:10.755Z,6.57
2019-03-12T09:14:00.051Z,10.70
2019-03-12T09:16:52.188Z,7.27
2019-03-12T09:19:41.480Z,2.90
2019-03-12T09:22:25.290Z,2.57
2019-03-12T09:25:27.229Z,2.43
2019-03-12T09:28:35.742Z,1.50
2019-03-12T09:31:37.161Z,2.33
2019-03-12T09:34:29.288Z,2.03
2019-03-12T09:37:29.050Z,3.13
2019-03-12T09:40:13.548Z,2.73
2019-03-12T09:43:08.844Z,8.10
2019-03-12T09:46:04.119Z,1.93
2019-03-12T09:48:47.954Z,5.87
2019-03-12T09:51:46.494Z,2.30
2019-03-12T09:54:34.254Z,1.80
2019-03-12T09:57:17.177Z,4.10
2019-03-12T10:00:15.427Z,3.67
2019-03-12T10:03:14.128Z,1.73
2019-03-12T10:06:02.132Z,2.23
2019-03-12T10:09:06.632Z,1.33
2019-03-12T10:12:01.893Z,2.87
2019-03-12T10:15:09.668Z,4.57
2019-03-12T10:17:57.217Z,10.63
2019-03-12T10:20:52.265Z,1.47
2019-03-12T10:23:40.998Z,2.30
2019-03-12T10:26:39.268Z,1.20
2019-03-12T10:29:16.279Z,4.63
2019-03-12T10:31:58.836Z,6.67
2019-03-12T10:34:35.547Z,2.27
2019-03-12T10:37:25.047Z,0.90
2019-03-12T10:40:19.956Z,1.30
2019-03-12T10:43:15.348Z,1.30
2019-03-12T10:45:57.375Z,4.77
2019-03-12T10:48:28.641Z,7.13
2019-03-12T10:50:59.223Z,1.40
2019-03-12T10:53:29.745Z,5.67
2019-03-12T10:56:00.259Z,1.10
2019-03-12T10:58:30.770Z,2.83
2019-03-12T11:01:01.664Z,2.27
2019-03-12T11:03:32.263Z,6.47
2019-03-12T11:06:03.028Z,1.20
2019-03-12T11:08:33.573Z,2.50
2019-03-12T11:11:08.702Z,2.37
2019-03-12T11:13:39.273Z,2.10
2019-03-12T11:16:09.976Z,3.67
2019-03-12T11:18:40.453Z,5.57
2019-03-12T11:21:10.920Z,1.57
2019-03-12T11:23:41.491Z,5.03
2019-03-12T11:26:11.949Z,1.50
2019-03-12T11:28:42.762Z,0.97
2019-03-12T11:31:13.280Z,1.37
2019-03-12T11:33:43.817Z,3.40
2019-03-12T11:36:14.423Z,3.93
2019-03-12T11:38:45.341Z,6.50
2019-03-12T11:41:18.902Z,2.10
2019-03-12T11:43:49.434Z,2.63
2019-03-12T11:46:19.977Z,2.37
2019-03-12T11:48:50.443Z,4.33
2019-03-12T11:51:20.950Z,1.97
2019-03-12T11:53:51.408Z,3.17
2019-03-12T11:56:21.941Z,1.80
2019-03-12T11:58:52.402Z,3.13
2019-03-12T12:01:22.958Z,9.30
2019-03-12T12:03:53.522Z,2.47
2019-03-12T12:06:24.398Z,1.50
2019-03-12T12:08:55.913Z,1.30
2019-03-12T12:11:26.548Z,1.90
2019-03-12T12:13:57.269Z,1.90
2019-03-12T12:16:27.873Z,1.60
2019-03-12T12:18:58.481Z,1.30
2019-03-12T12:21:30.419Z,1.57
2019-03-12T12:24:00.914Z,1.10
2019-03-12T12:26:32.739Z,1.20
2019-03-12T12:29:03.259Z,1.33
2019-03-12T12:31:33.750Z,1.87
2019-03-12T12:34:04.470Z,1.93
2019-03-12T12:36:34.961Z,2.13
2019-03-12T12:39:07.196Z,3.07
2019-03-12T12:41:37.669Z,2.00
2019-03-12T12:44:08.155Z,3.33
2019-03-12T12:46:38.676Z,1.80
2019-03-12T12:49:10.152Z,2.97
2019-03-12T12:51:40.789Z,2.23
2019-03-12T12:54:11.326Z,2.33
2019-03-12T12:56:41.884Z,2.27
2019-03-12T12:59:12.409Z,2.40
2019-03-12T13:01:43.084Z,3.47
2019-03-12T13:04:13.617Z,2.77
2019-03-12T13:06:44.099Z,13.33
2019-03-12T13:09:14.900Z,2.60
2019-03-12T13:11:45.376Z,2.20
2019-03-12T13:14:16.043Z,3.27
2019-03-12T13:16:47.498Z,3.33
2019-03-12T13:19:18.041Z,3.40
2019-03-12T13:21:48.511Z,2.50
2019-03-12T13:24:19.054Z,1.97
2019-03-12T13:26:49.587Z,2.27
2019-03-12T13:29:20.129Z,2.83
2019-03-12T13:31:50.742Z,4.73
2019-03-12T13:34:21.189Z,2.20
2019-03-12T13:36:51.774Z,1.90
2019-03-12T13:39:22.314Z,1.80
2019-03-12T13:41:52.881Z,2.33
2019-03-12T13:44:23.437Z,1.53
2019-03-12T13:46:53.998Z,2.50
2019-03-12T13:49:24.502Z,2.80
2019-03-12T13:51:54.964Z,0.93
2019-03-12T13:54:25.584Z,2.40
2019-03-12T13:56:56.173Z,1.00
2019-03-12T13:59:27.740Z,1.50
2019-03-12T14:01:58.289Z,1.90
2019-03-12T14:04:28.850Z,1.83
2019-03-12T14:06:59.435Z,1.80
2019-03-12T14:09:30.173Z,1.70
2019-03-12T14:12:00.635Z,1.20
2019-03-12T14:14:31.245Z,1.80
2019-03-12T14:17:01.706Z,1.23
2019-03-12T14:19:32.319Z,2.10
2019-03-12T14:22:05.578Z,2.60
2019-03-12T14:24:36.647Z,1.63
2019-03-12T14:27:07.128Z,3.47
2019-03-12T14:29:37.823Z,1.90
2019-03-12T14:32:08.419Z,1.73
2019-03-12T14:34:38.914Z,2.00
2019-03-12T14:37:09.431Z,1.30
2019-03-12T14:39:40.002Z,0.97
2019-03-12T14:42:10.512Z,0.90
2019-03-12T14:44:41.006Z,1.30
2019-03-12T14:47:11.490Z,0.80
2019-03-12T14:49:42.084Z,1.77
2019-03-12T14:52:22.797Z,2.50
2019-03-12T14:54:53.319Z,3.50
2019-03-12T14:57:24.231Z,2.20
2019-03-12T14:59:54.751Z,4.50
2019-03-12T15:02:25.383Z,3.73
2019-03-12T15:04:55.861Z,2.43
2019-03-12T15:07:26.589Z,3.70
2019-03-12T15:09:57.058Z,2.10
2019-03-12T15:12:27.510Z,1.80
2019-03-12T15:14:58.014Z,1.73
2019-03-12T15:17:28.466Z,2.63
2019-03-12T15:19:58.975Z,3.63
2019-03-12T15:22:29.522Z,3.53
2019-03-12T15:25:00.056Z,4.90
2019-03-12T15:27:30.561Z,5.47
2019-03-12T15:30:01.063Z,10.03
2019-03-12T15:32:31.562Z,11.23
2019-03-12T15:35:02.413Z,6.90
2019-03-12T15:37:32.910Z,19.00
2019-03-12T15:40:03.526Z,4.57
2019-03-12T15:42:33.979Z,7.47
2019-03-12T15:45:04.678Z,10.20
2019-03-12T15:47:38.786Z,2.90
2019-03-12T15:50:09.869Z,2.87
2019-03-12T15:52:39.919Z,2.27
2019-03-12T15:55:11.006Z,2.00
2019-03-12T15:57:41.545Z,2.00
2019-03-12T16:00:12.252Z,1.97
2019-03-12T16:02:42.736Z,1.80
2019-03-12T16:05:13.423Z,3.00
2019-03-12T16:07:43.913Z,2.87
2019-03-12T16:10:14.478Z,3.10
2019-03-12T16:12:44.976Z,3.33
2019-03-12T16:15:15.874Z,2.90
2019-03-12T16:17:46.318Z,3.27
2019-03-12T16:20:17.029Z,2.37
2019-03-12T16:22:47.482Z,2.97
2019-03-12T16:25:18.569Z,2.40
2019-03-12T16:27:49.159Z,1.93
2019-03-12T16:30:19.879Z,2.20
2019-03-12T16:32:50.473Z,1.40
2019-03-12T16:35:20.988Z,1.40
2019-03-12T16:37:51.443Z,1.50
2019-03-12T16:40:21.970Z,1.57
2019-03-12T16:42:52.422Z,1.70
2019-03-12T16:45:23.022Z,2.37
2019-03-12T16:47:53.631Z,1.90
2019-03-12T16:50:24.083Z,1.93
2019-03-12T16:52:54.572Z,2.60
2019-03-12T16:55:25.095Z,2.80
2019-03-12T16:57:55.563Z,2.70
2019-03-12T17:00:26.181Z,3.33
2019-03-12T17:02:56.763Z,3.80
2019-03-12T17:05:27.235Z,3.50
2019-03-12T17:07:57.720Z,3.80
2019-03-12T17:10:28.211Z,3.70
2019-03-12T17:12:58.671Z,3.80
2019-03-12T17:15:29.202Z,2.70
2019-03-12T17:17:59.658Z,2.20
2019-03-12T17:20:30.121Z,2.53
2019-03-12T17:23:00.560Z,2.30
2019-03-12T17:25:31.041Z,2.50
2019-03-12T17:28:01.529Z,1.90
2019-03-12T17:30:32.065Z,2.00
2019-03-12T17:33:02.562Z,1.97
2019-03-12T17:35:33.217Z,2.03
2019-03-12T17:38:03.674Z,2.83
2019-03-12T17:40:34.253Z,1.90
2019-03-12T17:43:04.872Z,2.73
2019-03-12T17:45:35.875Z,2.70
2019-03-12T17:48:06.680Z,3.47
2019-03-12T17:50:37.176Z,2.63
2019-03-12T17:53:07.744Z,2.67
2019-03-12T17:55:38.230Z,3.17
2019-03-12T17:58:08.716Z,4.00
2019-03-12T18:00:41.915Z,3.20
2019-03-12T18:03:12.458Z,3.50
2019-03-12T18:05:42.950Z,3.80
2019-03-12T18:08:13.398Z,3.23
2019-03-12T18:10:43.852Z,4.53
2019-03-12T18:13:14.340Z,4.30
2019-03-12T18:15:44.781Z,4.10
2019-03-12T18:18:15.261Z,4.43
2019-03-12T18:20:45.711Z,4.77
2019-03-12T18:23:16.242Z,4.63
2019-03-12T18:25:46.730Z,4.20
2019-03-12T18:28:17.185Z,3.90
2019-03-12T18:30:47.702Z,6.10
2019-03-12T18:33:18.190Z,4.80
2019-03-12T18:35:48.635Z,4.20
2019-03-12T18:38:19.134Z,3.30
2019-03-12T18:40:49.576Z,2.73
2019-03-12T18:43:20.364Z,2.93
2019-03-12T18:45:50.823Z,2.10
2019-03-12T18:48:21.319Z,5.87
2019-03-12T18:50:51.782Z,1.73
2019-03-12T18:53:22.261Z,2.80
2019-03-12T18:55:58.074Z,1.70
2019-03-12T18:58:28.551Z,2.10
2019-03-12T19:01:01.104Z,2.57
2019-03-12T19:03:31.582Z,2.20
2019-03-12T19:06:02.152Z,2.10
2019-03-12T19:08:32.695Z,2.33
2019-03-12T19:11:03.187Z,2.67
2019-03-12T19:13:33.696Z,2.00
2019-03-12T19:16:04.377Z,1.70
2019-03-12T19:18:34.931Z,2.20
2019-03-12T19:21:05.520Z,1.80
2019-03-12T19:23:35.983Z,5.20
2019-03-12T19:26:07.602Z,4.23
2019-03-12T19:28:38.087Z,3.20
2019-03-12T19:31:33.421Z,2.83
2019-03-12T19:34:08.286Z,2.40
2019-03-12T19:36:38.750Z,2.50
2019-03-12T19:39:11.568Z,2.53
2019-03-12T19:41:42.067Z,2.60
2019-03-12T19:44:12.514Z,2.50
2019-03-12T19:46:43.115Z,2.23
2019-03-12T19:49:13.813Z,3.73
2019-03-12T19:51:44.276Z,3.57
2019-03-12T19:54:14.881Z,10.17
2019-03-12T19:56:45.382Z,5.37
2019-03-12T19:59:15.935Z,6.47
2019-03-12T20:01:47.536Z,4.13
2019-03-12T20:04:17.983Z,2.40
2019-03-12T20:06:48.423Z,2.00
2019-03-12T20:09:32.730Z,2.57
2019-03-12T20:12:35.466Z,3.43
2019-03-12T20:15:48.955Z,3.03
2019-03-12T20:19:15.544Z,1.60
2019-03-12T20:22:21.178Z,1.60
2019-03-12T20:25:56.623Z,1.40
2019-03-12T20:29:10.500Z,1.40
2019-03-12T20:32:35.033Z,1.87
2019-03-12T20:36:01.322Z,2.30
2019-03-12T20:39:06.907Z,2.60
2019-03-12T20:42:12.564Z,8.40
2019-03-12T20:45:26.388Z,10.83
2019-03-12T20:48:36.146Z,11.47
2019-03-12T20:51:47.306Z,10.10
2019-03-12T20:55:07.036Z,9.17
2019-03-12T20:58:23.670Z,9.37
2019-03-12T21:01:31.658Z,10.57
2019-03-12T21:05:04.483Z,9.77
2019-03-12T21:08:23.353Z,10.10
2019-03-12T21:11:30.459Z,10.10
2019-03-12T21:14:44.794Z,10.00
2019-03-12T21:17:50.472Z,10.03
2019-03-12T21:20:55.965Z,10.10
2019-03-12T21:23:55.554Z,10.63
2019-03-12T21:26:56.114Z,10.60
2019-03-12T21:29:44.048Z,11.70
2019-03-12T21:32:15.453Z,11.00
2019-03-12T21:34:46.071Z,9.93
2019-03-12T21:37:16.840Z,10.13
2019-03-12T21:39:55.043Z,10.23
2019-03-12T21:42:19.678Z,10.43
2019-03-12T21:44:50.136Z,9.90
2019-03-12T21:47:20.705Z,10.10
2019-03-12T21:49:51.188Z,10.33
2019-03-12T21:52:21.652Z,11.60
2019-03-12T21:54:52.173Z,11.10
2019-03-12T21:57:22.684Z,11.10
2019-03-12T21:59:54.428Z,12.47
2019-03-12T22:02:24.915Z,11.00
2019-03-12T22:04:55.433Z,11.63
2019-03-12T22:07:25.914Z,11.57
2019-03-12T22:09:56.402Z,10.90
2019-03-12T22:12:26.909Z,10.73
2019-03-12T22:14:57.392Z,9.97
2019-03-12T22:17:27.961Z,9.43
2019-03-12T22:19:58.423Z,9.20
2019-03-12T22:22:56.922Z,8.83
2019-03-12T22:25:27.519Z,9.33
2019-03-12T22:27:58.048Z,8.53
2019-03-12T22:30:28.978Z,8.50
2019-03-12T22:32:59.574Z,8.67
2019-03-12T22:35:30.371Z,8.03
2019-03-12T22:38:02.267Z,8.33
2019-03-12T22:40:32.731Z,7.10
2019-03-12T22:43:03.205Z,8.00
2019-03-12T22:45:33.717Z,8.40
2019-03-12T22:48:04.298Z,8.10
2019-03-12T22:50:34.818Z,7.40
2019-03-12T22:53:05.290Z,7.57
2019-03-12T22:55:36.528Z,7.40
2019-03-12T22:58:06.999Z,8.20
2019-03-12T23:00:41.471Z,7.97
2019-03-12T23:03:12.140Z,7.57
2019-03-12T23:05:42.752Z,7.90
2019-03-12T23:08:13.597Z,7.90
2019-03-12T23:10:44.102Z,8.70
2019-03-12T23:13:14.931Z,10.13
2019-03-12T23:15:45.395Z,9.53
2019-03-12T23:18:15.877Z,12.10
2019-03-12T23:20:46.599Z,13.97
2019-03-12T23:23:17.187Z,15.67
2019-03-12T23:25:47.766Z,15.90
2019-03-12T23:28:18.293Z,15.27
2019-03-12T23:30:48.826Z,14.77
2019-03-12T23:33:19.478Z,15.53
2019-03-12T23:35:50.058Z,13.60
2019-03-12T23:38:20.644Z,11.50
2019-03-12T23:40:51.151Z,11.03
2019-03-12T23:43:21.853Z,11.27
2019-03-12T23:45:52.298Z,9.67
2019-03-12T23:48:23.014Z,10.90
2019-03-12T23:50:53.676Z,9.67
2019-03-12T23:53:24.115Z,8.20
2019-03-12T23:55:54.715Z,8.47
2019-03-12T23:58:30.616Z,8.17
